sensor_id;sensor_type;location;lat;lon;timestamp;P1;durP1;ratioP1;P2;durP2;ratioP2
1949;SDS011;975;48.760;9.152;2023-03-01T00:02:23;21.45;;;8.48;;
1949;SDS011;975;48.760;9.152;2023-03-01T00:04:52;21.65;;;8.50;;
1949;SDS011;975;48.760;9.152;2023-03-01T00:07:19;20.35;;;8.73;;
1949;SDS011;975;48.760;9.152;2023-03-01T00:09:47;21.13;;;9.15;;
1949;SDS011;975;48.760;9.152;2023-03-01T00:12:14;22.25;;;8.80;;
1949;SDS011;975;48.760;9.152;2023-03-01T00:14:42;25.77;;;9.20;;
1949;SDS011;975;48.760;9.152;2023-03-01T00:17:09;20.58;;;8.85;;
1949;SDS011;975;48.760;9.152;2023-03-01T00:19:37;21.63;;;8.95;;
1949;SDS011;975;48.760;9.152;2023-03-01T00:22:05;20.25;;;8.60;;
1949;SDS011;975;48.760;9.152;2023-03-01T00:24:36;20.02;;;8.82;;
1949;SDS011;975;48.760;9.152;2023-03-01T00:27:03;22.17;;;8.68;;
1949;SDS011;975;48.760;9.152;2023-03-01T00:29:31;20.05;;;8.70;;
1949;SDS011;975;48.760;9.152;2023-03-01T00:31:59;23.10;;;8.65;;
1949;SDS011;975;48.760;9.152;2023-03-01T00:34:29;17.38;;;8.32;;
1949;SDS011;975;48.760;9.152;2023-03-01T00:36:56;23.45;;;9.52;;
1949;SDS011;975;48.760;9.152;2023-03-01T00:39:31;25.70;;;9.90;;
1949;SDS011;975;48.760;9.152;2023-03-01T00:41:59;20.20;;;8.43;;
1949;SDS011;975;48.760;9.152;2023-03-01T00:44:26;22.35;;;8.85;;
1949;SDS011;975;48.760;9.152;2023-03-01T00:46:54;22.42;;;8.45;;
1949;SDS011;975;48.760;9.152;2023-03-01T00:49:21;23.00;;;8.48;;
1949;SDS011;975;48.760;9.152;2023-03-01T00:51:49;19.65;;;8.10;;
1949;SDS011;975;48.760;9.152;2023-03-01T00:54:16;22.92;;;7.88;;
1949;SDS011;975;48.760;9.152;2023-03-01T00:56:45;25.88;;;9.02;;
1949;SDS011;975;48.760;9.152;2023-03-01T00:59:12;20.20;;;8.68;;
1949;SDS011;975;48.760;9.152;2023-03-01T01:01:39;22.73;;;8.77;;
1949;SDS011;975;48.760;9.152;2023-03-01T01:04:07;21.85;;;8.25;;
1949;SDS011;975;48.760;9.152;2023-03-01T01:06:40;21.65;;;8.30;;
1949;SDS011;975;48.760;9.152;2023-03-01T01:09:10;19.25;;;7.97;;
1949;SDS011;975;48.760;9.152;2023-03-01T01:11:42;18.77;;;8.32;;
1949;SDS011;975;48.760;9.152;2023-03-01T01:14:12;19.10;;;8.38;;
1949;SDS011;975;48.760;9.152;2023-03-01T01:16:39;17.73;;;8.05;;
1949;SDS011;975;48.760;9.152;2023-03-01T01:19:12;21.08;;;7.60;;
1949;SDS011;975;48.760;9.152;2023-03-01T01:21:40;24.05;;;8.70;;
1949;SDS011;975;48.760;9.152;2023-03-01T01:24:08;25.35;;;9.43;;
1949;SDS011;975;48.760;9.152;2023-03-01T01:26:38;18.45;;;8.35;;
1949;SDS011;975;48.760;9.152;2023-03-01T01:29:08;19.45;;;7.82;;
1949;SDS011;975;48.760;9.152;2023-03-01T01:31:36;23.23;;;7.65;;
1949;SDS011;975;48.760;9.152;2023-03-01T01:34:05;17.67;;;7.78;;
1949;SDS011;975;48.760;9.152;2023-03-01T01:36:34;18.52;;;7.97;;
1949;SDS011;975;48.760;9.152;2023-03-01T01:39:01;19.27;;;7.88;;
1949;SDS011;975;48.760;9.152;2023-03-01T01:41:29;20.48;;;7.90;;
1949;SDS011;975;48.760;9.152;2023-03-01T01:46:53;17.48;;;7.50;;
1949;SDS011;975;48.760;9.152;2023-03-01T01:49:24;21.70;;;8.52;;
1949;SDS011;975;48.760;9.152;2023-03-01T01:51:56;19.45;;;9.07;;
1949;SDS011;975;48.760;9.152;2023-03-01T01:54:29;19.23;;;8.32;;
1949;SDS011;975;48.760;9.152;2023-03-01T01:57:03;25.65;;;9.23;;
1949;SDS011;975;48.760;9.152;2023-03-01T01:59:37;20.27;;;9.00;;
1949;SDS011;975;48.760;9.152;2023-03-01T02:02:05;23.52;;;9.98;;
1949;SDS011;975;48.760;9.152;2023-03-01T02:04:32;24.35;;;9.93;;
1949;SDS011;975;48.760;9.152;2023-03-01T02:07:01;22.10;;;8.65;;
1949;SDS011;975;48.760;9.152;2023-03-01T02:09:35;21.40;;;8.15;;
1949;SDS011;975;48.760;9.152;2023-03-01T02:12:03;21.55;;;8.80;;
1949;SDS011;975;48.760;9.152;2023-03-01T02:14:32;23.92;;;9.38;;
1949;SDS011;975;48.760;9.152;2023-03-01T02:17:00;18.10;;;8.45;;
1949;SDS011;975;48.760;9.152;2023-03-01T02:19:31;27.73;;;9.32;;
1949;SDS011;975;48.760;9.152;2023-03-01T02:22:10;21.92;;;9.10;;
1949;SDS011;975;48.760;9.152;2023-03-01T02:24:47;25.08;;;9.00;;
1949;SDS011;975;48.760;9.152;2023-03-01T02:27:28;23.27;;;9.15;;
1949;SDS011;975;48.760;9.152;2023-03-01T02:30:05;20.33;;;8.20;;
1949;SDS011;975;48.760;9.152;2023-03-01T02:32:33;20.08;;;7.13;;
1949;SDS011;975;48.760;9.152;2023-03-01T02:35:00;23.17;;;8.73;;
1949;SDS011;975;48.760;9.152;2023-03-01T02:39:59;20.38;;;7.63;;
1949;SDS011;975;48.760;9.152;2023-03-01T02:42:35;21.40;;;9.35;;
1949;SDS011;975;48.760;9.152;2023-03-01T02:45:08;17.75;;;7.25;;
1949;SDS011;975;48.760;9.152;2023-03-01T02:47:39;26.98;;;10.18;;
1949;SDS011;975;48.760;9.152;2023-03-01T02:50:11;15.98;;;7.25;;
1949;SDS011;975;48.760;9.152;2023-03-01T02:52:54;21.00;;;7.78;;
1949;SDS011;975;48.760;9.152;2023-03-01T02:55:24;21.20;;;8.43;;
1949;SDS011;975;48.760;9.152;2023-03-01T02:57:56;23.55;;;9.50;;
1949;SDS011;975;48.760;9.152;2023-03-01T03:00:26;15.05;;;7.57;;
1949;SDS011;975;48.760;9.152;2023-03-01T03:02:58;24.15;;;9.13;;
1949;SDS011;975;48.760;9.152;2023-03-01T03:05:26;22.00;;;8.38;;
1949;SDS011;975;48.760;9.152;2023-03-01T03:07:59;19.10;;;8.63;;
1949;SDS011;975;48.760;9.152;2023-03-01T03:10:29;18.58;;;8.68;;
1949;SDS011;975;48.760;9.152;2023-03-01T03:13:01;24.02;;;9.52;;
1949;SDS011;975;48.760;9.152;2023-03-01T03:15:31;19.73;;;9.00;;
1949;SDS011;975;48.760;9.152;2023-03-01T03:18:01;18.85;;;9.38;;
1949;SDS011;975;48.760;9.152;2023-03-01T03:20:33;23.02;;;8.90;;
1949;SDS011;975;48.760;9.152;2023-03-01T03:23:03;19.35;;;8.55;;
1949;SDS011;975;48.760;9.152;2023-03-01T03:25:33;18.42;;;7.93;;
1949;SDS011;975;48.760;9.152;2023-03-01T03:28:03;22.90;;;9.25;;
1949;SDS011;975;48.760;9.152;2023-03-01T03:30:39;21.60;;;9.45;;
1949;SDS011;975;48.760;9.152;2023-03-01T03:33:07;21.55;;;10.15;;
1949;SDS011;975;48.760;9.152;2023-03-01T03:35:38;22.70;;;7.85;;
1949;SDS011;975;48.760;9.152;2023-03-01T03:38:08;22.38;;;9.30;;
1949;SDS011;975;48.760;9.152;2023-03-01T03:40:41;24.08;;;8.50;;
1949;SDS011;975;48.760;9.152;2023-03-01T03:43:10;24.58;;;8.80;;
1949;SDS011;975;48.760;9.152;2023-03-01T03:45:43;24.17;;;9.68;;
1949;SDS011;975;48.760;9.152;2023-03-01T03:48:11;27.25;;;9.98;;
1949;SDS011;975;48.760;9.152;2023-03-01T03:50:38;19.90;;;8.75;;
1949;SDS011;975;48.760;9.152;2023-03-01T03:53:08;23.70;;;9.73;;
1949;SDS011;975;48.760;9.152;2023-03-01T03:55:37;20.50;;;9.00;;
1949;SDS011;975;48.760;9.152;2023-03-01T03:58:05;20.35;;;8.48;;
1949;SDS011;975;48.760;9.152;2023-03-01T04:00:33;18.58;;;7.55;;
1949;SDS011;975;48.760;9.152;2023-03-01T04:03:02;24.30;;;10.20;;
1949;SDS011;975;48.760;9.152;2023-03-01T04:05:30;22.48;;;8.68;;
1949;SDS011;975;48.760;9.152;2023-03-01T04:07:57;23.50;;;8.93;;
1949;SDS011;975;48.760;9.152;2023-03-01T04:10:28;25.23;;;9.45;;
1949;SDS011;975;48.760;9.152;2023-03-01T04:12:59;31.35;;;10.02;;
1949;SDS011;975;48.760;9.152;2023-03-01T04:15:26;24.17;;;9.68;;
1949;SDS011;975;48.760;9.152;2023-03-01T04:17:54;23.80;;;9.45;;
1949;SDS011;975;48.760;9.152;2023-03-01T04:20:24;22.00;;;9.45;;
1949;SDS011;975;48.760;9.152;2023-03-01T04:22:55;26.80;;;10.35;;
1949;SDS011;975;48.760;9.152;2023-03-01T04:25:24;26.25;;;9.65;;
1949;SDS011;975;48.760;9.152;2023-03-01T04:27:52;24.13;;;9.48;;
1949;SDS011;975;48.760;9.152;2023-03-01T04:30:19;27.48;;;9.85;;
1949;SDS011;975;48.760;9.152;2023-03-01T04:32:50;22.08;;;8.93;;
1949;SDS011;975;48.760;9.152;2023-03-01T04:35:17;23.60;;;9.43;;
1949;SDS011;975;48.760;9.152;2023-03-01T04:37:53;25.52;;;9.80;;
1949;SDS011;975;48.760;9.152;2023-03-01T04:40:20;25.63;;;10.05;;
1949;SDS011;975;48.760;9.152;2023-03-01T04:42:47;23.38;;;9.80;;
1949;SDS011;975;48.760;9.152;2023-03-01T04:45:14;23.10;;;9.77;;
1949;SDS011;975;48.760;9.152;2023-03-01T04:47:42;24.65;;;10.27;;
1949;SDS011;975;48.760;9.152;2023-03-01T04:50:11;25.90;;;9.68;;
1949;SDS011;975;48.760;9.152;2023-03-01T04:52:40;24.30;;;9.43;;
1949;SDS011;975;48.760;9.152;2023-03-01T04:55:10;29.83;;;11.23;;
1949;SDS011;975;48.760;9.152;2023-03-01T04:57:37;31.02;;;11.25;;
1949;SDS011;975;48.760;9.152;2023-03-01T05:00:12;22.85;;;9.88;;
1949;SDS011;975;48.760;9.152;2023-03-01T05:02:47;28.70;;;9.80;;
1949;SDS011;975;48.760;9.152;2023-03-01T05:05:19;23.95;;;9.45;;
1949;SDS011;975;48.760;9.152;2023-03-01T05:07:51;26.67;;;8.90;;
1949;SDS011;975;48.760;9.152;2023-03-01T05:10:21;21.42;;;9.60;;
1949;SDS011;975;48.760;9.152;2023-03-01T05:12:48;26.70;;;10.27;;
1949;SDS011;975;48.760;9.152;2023-03-01T05:15:17;24.58;;;9.95;;
1949;SDS011;975;48.760;9.152;2023-03-01T05:17:49;23.58;;;9.45;;
1949;SDS011;975;48.760;9.152;2023-03-01T05:20:16;24.42;;;10.18;;
1949;SDS011;975;48.760;9.152;2023-03-01T05:22:48;25.10;;;9.95;;
1949;SDS011;975;48.760;9.152;2023-03-01T05:25:15;23.65;;;9.15;;
1949;SDS011;975;48.760;9.152;2023-03-01T05:27:44;26.98;;;9.95;;
1949;SDS011;975;48.760;9.152;2023-03-01T05:30:12;27.80;;;11.80;;
1949;SDS011;975;48.760;9.152;2023-03-01T05:32:41;28.13;;;10.77;;
1949;SDS011;975;48.760;9.152;2023-03-01T05:35:10;29.10;;;10.18;;
1949;SDS011;975;48.760;9.152;2023-03-01T05:37:40;22.27;;;10.45;;
1949;SDS011;975;48.760;9.152;2023-03-01T05:40:10;24.45;;;9.85;;
1949;SDS011;975;48.760;9.152;2023-03-01T05:42:42;28.45;;;10.52;;
1949;SDS011;975;48.760;9.152;2023-03-01T05:45:12;20.05;;;8.95;;
1949;SDS011;975;48.760;9.152;2023-03-01T05:47:40;25.92;;;9.85;;
1949;SDS011;975;48.760;9.152;2023-03-01T05:50:10;26.88;;;10.38;;
1949;SDS011;975;48.760;9.152;2023-03-01T05:52:39;26.77;;;11.02;;
1949;SDS011;975;48.760;9.152;2023-03-01T05:55:07;23.40;;;9.48;;
1949;SDS011;975;48.760;9.152;2023-03-01T05:57:37;29.58;;;11.05;;
1949;SDS011;975;48.760;9.152;2023-03-01T06:00:09;25.17;;;10.70;;
1949;SDS011;975;48.760;9.152;2023-03-01T06:02:38;25.13;;;10.43;;
1949;SDS011;975;48.760;9.152;2023-03-01T06:05:06;27.60;;;9.70;;
1949;SDS011;975;48.760;9.152;2023-03-01T06:07:38;25.85;;;10.63;;
1949;SDS011;975;48.760;9.152;2023-03-01T06:10:07;26.20;;;10.07;;
1949;SDS011;975;48.760;9.152;2023-03-01T06:12:36;24.90;;;10.48;;
1949;SDS011;975;48.760;9.152;2023-03-01T06:15:05;26.65;;;10.55;;
1949;SDS011;975;48.760;9.152;2023-03-01T06:17:36;26.48;;;9.23;;
1949;SDS011;975;48.760;9.152;2023-03-01T06:20:07;27.80;;;10.85;;
1949;SDS011;975;48.760;9.152;2023-03-01T06:22:36;21.23;;;8.95;;
1949;SDS011;975;48.760;9.152;2023-03-01T06:25:03;26.33;;;10.23;;
1949;SDS011;975;48.760;9.152;2023-03-01T06:27:31;22.88;;;9.10;;
1949;SDS011;975;48.760;9.152;2023-03-01T06:29:59;24.73;;;10.18;;
1949;SDS011;975;48.760;9.152;2023-03-01T06:32:26;26.83;;;10.95;;
1949;SDS011;975;48.760;9.152;2023-03-01T06:34:55;27.75;;;10.38;;
1949;SDS011;975;48.760;9.152;2023-03-01T06:37:24;31.95;;;10.93;;
1949;SDS011;975;48.760;9.152;2023-03-01T06:39:51;24.27;;;10.18;;
1949;SDS011;975;48.760;9.152;2023-03-01T06:42:18;26.73;;;10.02;;
1949;SDS011;975;48.760;9.152;2023-03-01T06:44:48;27.05;;;11.23;;
1949;SDS011;975;48.760;9.152;2023-03-01T06:47:15;23.85;;;10.35;;
1949;SDS011;975;48.760;9.152;2023-03-01T06:49:42;26.90;;;10.05;;
1949;SDS011;975;48.760;9.152;2023-03-01T06:52:11;21.88;;;9.63;;
1949;SDS011;975;48.760;9.152;2023-03-01T06:54:38;24.20;;;10.35;;
1949;SDS011;975;48.760;9.152;2023-03-01T06:57:05;24.55;;;9.82;;
1949;SDS011;975;48.760;9.152;2023-03-01T06:59:41;25.05;;;9.43;;
1949;SDS011;975;48.760;9.152;2023-03-01T07:02:10;24.25;;;10.07;;
1949;SDS011;975;48.760;9.152;2023-03-01T07:04:40;23.73;;;9.65;;
1949;SDS011;975;48.760;9.152;2023-03-01T07:07:12;25.42;;;10.02;;
1949;SDS011;975;48.760;9.152;2023-03-01T07:09:40;29.30;;;11.73;;
1949;SDS011;975;48.760;9.152;2023-03-01T07:12:07;26.45;;;11.02;;
1949;SDS011;975;48.760;9.152;2023-03-01T07:14:34;25.80;;;10.90;;
1949;SDS011;975;48.760;9.152;2023-03-01T07:17:02;28.25;;;12.15;;
1949;SDS011;975;48.760;9.152;2023-03-01T07:19:29;23.98;;;10.50;;
1949;SDS011;975;48.760;9.152;2023-03-01T07:21:56;28.48;;;10.82;;
1949;SDS011;975;48.760;9.152;2023-03-01T07:24:30;25.10;;;9.82;;
1949;SDS011;975;48.760;9.152;2023-03-01T07:26:58;26.20;;;10.27;;
1949;SDS011;975;48.760;9.152;2023-03-01T07:29:25;24.20;;;10.20;;
1949;SDS011;975;48.760;9.152;2023-03-01T07:31:54;24.92;;;10.48;;
1949;SDS011;975;48.760;9.152;2023-03-01T07:34:21;29.27;;;11.32;;
1949;SDS011;975;48.760;9.152;2023-03-01T07:36:51;26.08;;;10.13;;
1949;SDS011;975;48.760;9.152;2023-03-01T07:39:21;25.05;;;10.32;;
1949;SDS011;975;48.760;9.152;2023-03-01T07:41:50;26.58;;;10.95;;
1949;SDS011;975;48.760;9.152;2023-03-01T07:44:18;25.77;;;10.27;;
1949;SDS011;975;48.760;9.152;2023-03-01T07:46:45;24.17;;;10.27;;
1949;SDS011;975;48.760;9.152;2023-03-01T07:49:12;24.02;;;10.30;;
1949;SDS011;975;48.760;9.152;2023-03-01T07:51:40;27.02;;;9.88;;
1949;SDS011;975;48.760;9.152;2023-03-01T07:54:07;24.17;;;10.18;;
1949;SDS011;975;48.760;9.152;2023-03-01T07:56:37;24.50;;;10.75;;
1949;SDS011;975;48.760;9.152;2023-03-01T07:59:07;29.00;;;11.15;;
1949;SDS011;975;48.760;9.152;2023-03-01T08:01:34;24.50;;;9.88;;
1949;SDS011;975;48.760;9.152;2023-03-01T08:04:02;25.08;;;9.68;;
1949;SDS011;975;48.760;9.152;2023-03-01T08:06:33;22.33;;;10.07;;
1949;SDS011;975;48.760;9.152;2023-03-01T08:09:00;32.85;;;10.52;;
1949;SDS011;975;48.760;9.152;2023-03-01T08:11:28;28.70;;;12.15;;
1949;SDS011;975;48.760;9.152;2023-03-01T08:14:00;33.17;;;11.45;;
1949;SDS011;975;48.760;9.152;2023-03-01T08:16:31;26.33;;;11.45;;
1949;SDS011;975;48.760;9.152;2023-03-01T08:19:03;25.77;;;10.60;;
1949;SDS011;975;48.760;9.152;2023-03-01T08:21:30;24.25;;;10.27;;
1949;SDS011;975;48.760;9.152;2023-03-01T08:24:00;26.88;;;11.30;;
1949;SDS011;975;48.760;9.152;2023-03-01T08:26:30;27.70;;;11.73;;
1949;SDS011;975;48.760;9.152;2023-03-01T08:28:57;24.30;;;10.35;;
1949;SDS011;975;48.760;9.152;2023-03-01T08:31:27;29.42;;;11.82;;
1949;SDS011;975;48.760;9.152;2023-03-01T08:33:57;28.60;;;11.48;;
1949;SDS011;975;48.760;9.152;2023-03-01T08:36:27;27.85;;;11.02;;
1949;SDS011;975;48.760;9.152;2023-03-01T08:38:56;25.90;;;11.57;;
1949;SDS011;975;48.760;9.152;2023-03-01T08:41:27;29.25;;;11.60;;
1949;SDS011;975;48.760;9.152;2023-03-01T08:43:54;29.92;;;11.73;;
1949;SDS011;975;48.760;9.152;2023-03-01T08:46:24;27.25;;;11.10;;
1949;SDS011;975;48.760;9.152;2023-03-01T08:48:52;30.77;;;12.13;;
1949;SDS011;975;48.760;9.152;2023-03-01T08:51:20;25.30;;;11.07;;
1949;SDS011;975;48.760;9.152;2023-03-01T08:53:48;29.52;;;11.77;;
1949;SDS011;975;48.760;9.152;2023-03-01T08:56:19;26.63;;;11.50;;
1949;SDS011;975;48.760;9.152;2023-03-01T08:58:47;27.85;;;11.75;;
1949;SDS011;975;48.760;9.152;2023-03-01T09:01:15;28.23;;;11.07;;
1949;SDS011;975;48.760;9.152;2023-03-01T09:03:43;25.40;;;10.07;;
1949;SDS011;975;48.760;9.152;2023-03-01T09:06:10;27.90;;;11.35;;
1949;SDS011;975;48.760;9.152;2023-03-01T09:08:41;26.55;;;10.73;;
1949;SDS011;975;48.760;9.152;2023-03-01T09:11:10;20.63;;;9.95;;
1949;SDS011;975;48.760;9.152;2023-03-01T09:13:38;29.48;;;11.27;;
1949;SDS011;975;48.760;9.152;2023-03-01T09:16:06;27.23;;;11.48;;
1949;SDS011;975;48.760;9.152;2023-03-01T09:18:35;20.77;;;8.50;;
1949;SDS011;975;48.760;9.152;2023-03-01T09:21:03;30.98;;;12.00;;
1949;SDS011;975;48.760;9.152;2023-03-01T09:23:33;27.50;;;11.88;;
1949;SDS011;975;48.760;9.152;2023-03-01T09:26:03;30.17;;;11.35;;
1949;SDS011;975;48.760;9.152;2023-03-01T09:28:30;26.65;;;11.27;;
1949;SDS011;975;48.760;9.152;2023-03-01T09:30:58;30.52;;;11.70;;
1949;SDS011;975;48.760;9.152;2023-03-01T09:33:29;29.85;;;11.25;;
1949;SDS011;975;48.760;9.152;2023-03-01T09:38:24;27.77;;;11.00;;
1949;SDS011;975;48.760;9.152;2023-03-01T09:40:51;24.25;;;10.45;;
1949;SDS011;975;48.760;9.152;2023-03-01T09:43:21;23.27;;;10.75;;
1949;SDS011;975;48.760;9.152;2023-03-01T09:45:52;25.17;;;11.82;;
1949;SDS011;975;48.760;9.152;2023-03-01T09:48:21;27.70;;;11.07;;
1949;SDS011;975;48.760;9.152;2023-03-01T09:50:49;28.75;;;12.43;;
1949;SDS011;975;48.760;9.152;2023-03-01T09:53:18;28.00;;;10.82;;
1949;SDS011;975;48.760;9.152;2023-03-01T09:55:48;26.30;;;11.43;;
1949;SDS011;975;48.760;9.152;2023-03-01T09:58:28;24.27;;;11.55;;
1949;SDS011;975;48.760;9.152;2023-03-01T10:00:56;30.52;;;11.02;;
1949;SDS011;975;48.760;9.152;2023-03-01T10:03:28;28.98;;;11.30;;
1949;SDS011;975;48.760;9.152;2023-03-01T10:06:00;23.83;;;9.85;;
1949;SDS011;975;48.760;9.152;2023-03-01T10:08:33;32.17;;;11.80;;
1949;SDS011;975;48.760;9.152;2023-03-01T10:11:04;27.73;;;11.00;;
1949;SDS011;975;48.760;9.152;2023-03-01T10:13:47;22.02;;;9.77;;
1949;SDS011;975;48.760;9.152;2023-03-01T10:16:21;28.73;;;11.25;;
1949;SDS011;975;48.760;9.152;2023-03-01T10:21:17;21.95;;;8.93;;
1949;SDS011;975;48.760;9.152;2023-03-01T10:23:45;27.73;;;10.27;;
1949;SDS011;975;48.760;9.152;2023-03-01T10:26:35;22.83;;;10.27;;
1949;SDS011;975;48.760;9.152;2023-03-01T10:29:07;25.13;;;10.13;;
1949;SDS011;975;48.760;9.152;2023-03-01T10:31:39;21.90;;;10.20;;
1949;SDS011;975;48.760;9.152;2023-03-01T10:34:09;23.08;;;10.98;;
1949;SDS011;975;48.760;9.152;2023-03-01T10:36:38;29.95;;;11.25;;
1949;SDS011;975;48.760;9.152;2023-03-01T10:39:10;29.58;;;11.43;;
1949;SDS011;975;48.760;9.152;2023-03-01T10:41:40;24.10;;;8.88;;
1949;SDS011;975;48.760;9.152;2023-03-01T10:44:35;20.95;;;8.50;;
1949;SDS011;975;48.760;9.152;2023-03-01T10:47:05;28.58;;;11.90;;
1949;SDS011;975;48.760;9.152;2023-03-01T10:49:32;27.15;;;10.80;;
1949;SDS011;975;48.760;9.152;2023-03-01T10:52:10;25.75;;;11.60;;
1949;SDS011;975;48.760;9.152;2023-03-01T10:54:38;22.60;;;9.40;;
1949;SDS011;975;48.760;9.152;2023-03-01T10:57:09;25.77;;;9.98;;
1949;SDS011;975;48.760;9.152;2023-03-01T11:00:00;20.50;;;9.90;;
1949;SDS011;975;48.760;9.152;2023-03-01T11:02:29;21.63;;;10.00;;
1949;SDS011;975;48.760;9.152;2023-03-01T11:04:59;17.27;;;7.88;;
1949;SDS011;975;48.760;9.152;2023-03-01T11:07:26;21.83;;;9.80;;
1949;SDS011;975;48.760;9.152;2023-03-01T11:09:54;25.58;;;11.18;;
1949;SDS011;975;48.760;9.152;2023-03-01T11:12:21;27.67;;;10.20;;
1949;SDS011;975;48.760;9.152;2023-03-01T11:14:49;24.70;;;10.70;;
1949;SDS011;975;48.760;9.152;2023-03-01T11:17:21;23.20;;;9.27;;
1949;SDS011;975;48.760;9.152;2023-03-01T11:20:00;23.70;;;9.73;;
1949;SDS011;975;48.760;9.152;2023-03-01T11:22:31;18.20;;;8.50;;
1949;SDS011;975;48.760;9.152;2023-03-01T11:25:01;23.67;;;9.70;;
1949;SDS011;975;48.760;9.152;2023-03-01T11:27:30;19.25;;;9.20;;
1949;SDS011;975;48.760;9.152;2023-03-01T11:29:59;25.35;;;10.15;;
1949;SDS011;975;48.760;9.152;2023-03-01T11:32:33;23.42;;;10.45;;
1949;SDS011;975;48.760;9.152;2023-03-01T11:35:05;21.85;;;9.85;;
1949;SDS011;975;48.760;9.152;2023-03-01T11:37:43;27.30;;;10.90;;
1949;SDS011;975;48.760;9.152;2023-03-01T11:40:15;24.35;;;10.35;;
1949;SDS011;975;48.760;9.152;2023-03-01T11:42:55;24.20;;;10.15;;
1949;SDS011;975;48.760;9.152;2023-03-01T11:45:27;24.38;;;9.48;;
1949;SDS011;975;48.760;9.152;2023-03-01T11:48:03;16.70;;;8.05;;
1949;SDS011;975;48.760;9.152;2023-03-01T11:50:40;22.98;;;9.27;;
1949;SDS011;975;48.760;9.152;2023-03-01T11:53:22;24.83;;;10.43;;
1949;SDS011;975;48.760;9.152;2023-03-01T11:55:55;23.00;;;9.90;;
1949;SDS011;975;48.760;9.152;2023-03-01T11:58:38;24.58;;;10.68;;
1949;SDS011;975;48.760;9.152;2023-03-01T12:01:15;21.27;;;9.70;;
1949;SDS011;975;48.760;9.152;2023-03-01T12:03:58;23.83;;;10.57;;
1949;SDS011;975;48.760;9.152;2023-03-01T12:06:43;19.75;;;9.60;;
1949;SDS011;975;48.760;9.152;2023-03-01T12:09:17;21.17;;;9.63;;
1949;SDS011;975;48.760;9.152;2023-03-01T12:11:54;19.30;;;8.50;;
1949;SDS011;975;48.760;9.152;2023-03-01T12:14:42;21.50;;;10.15;;
1949;SDS011;975;48.760;9.152;2023-03-01T12:17:15;20.70;;;10.25;;
1949;SDS011;975;48.760;9.152;2023-03-01T12:19:54;26.33;;;10.02;;
1949;SDS011;975;48.760;9.152;2023-03-01T12:22:29;22.98;;;10.55;;
1949;SDS011;975;48.760;9.152;2023-03-01T12:25:04;24.60;;;10.15;;
1949;SDS011;975;48.760;9.152;2023-03-01T12:27:48;21.33;;;10.15;;
1949;SDS011;975;48.760;9.152;2023-03-01T12:30:21;23.02;;;10.43;;
1949;SDS011;975;48.760;9.152;2023-03-01T12:32:54;25.15;;;9.85;;
1949;SDS011;975;48.760;9.152;2023-03-01T12:35:32;20.30;;;8.98;;
1949;SDS011;975;48.760;9.152;2023-03-01T12:38:04;20.08;;;10.18;;
1949;SDS011;975;48.760;9.152;2023-03-01T12:40:38;24.10;;;11.00;;
1949;SDS011;975;48.760;9.152;2023-03-01T12:43:10;17.60;;;8.55;;
1949;SDS011;975;48.760;9.152;2023-03-01T12:45:46;19.60;;;7.88;;
1949;SDS011;975;48.760;9.152;2023-03-01T12:48:22;21.27;;;9.18;;
1949;SDS011;975;48.760;9.152;2023-03-01T12:50:52;20.58;;;9.10;;
1949;SDS011;975;48.760;9.152;2023-03-01T12:53:22;20.10;;;9.25;;
1949;SDS011;975;48.760;9.152;2023-03-01T12:55:50;18.75;;;9.27;;
1949;SDS011;975;48.760;9.152;2023-03-01T12:58:21;22.25;;;9.38;;
1949;SDS011;975;48.760;9.152;2023-03-01T13:00:54;19.90;;;9.15;;
1949;SDS011;975;48.760;9.152;2023-03-01T13:03:29;16.83;;;7.20;;
1949;SDS011;975;48.760;9.152;2023-03-01T13:06:04;24.70;;;9.15;;
1949;SDS011;975;48.760;9.152;2023-03-01T13:08:36;17.60;;;8.73;;
1949;SDS011;975;48.760;9.152;2023-03-01T13:11:11;20.92;;;8.75;;
1949;SDS011;975;48.760;9.152;2023-03-01T13:13:42;18.58;;;8.70;;
1949;SDS011;975;48.760;9.152;2023-03-01T13:16:38;18.75;;;8.93;;
1949;SDS011;975;48.760;9.152;2023-03-01T13:19:09;18.17;;;8.55;;
1949;SDS011;975;48.760;9.152;2023-03-01T13:21:47;17.33;;;8.35;;
1949;SDS011;975;48.760;9.152;2023-03-01T13:24:24;24.17;;;10.05;;
1949;SDS011;975;48.760;9.152;2023-03-01T13:29:25;16.67;;;7.72;;
1949;SDS011;975;48.760;9.152;2023-03-01T13:31:56;15.82;;;8.40;;
1949;SDS011;975;48.760;9.152;2023-03-01T13:37:20;15.65;;;8.10;;
1949;SDS011;975;48.760;9.152;2023-03-01T13:39:48;16.20;;;8.02;;
1949;SDS011;975;48.760;9.152;2023-03-01T13:42:33;20.40;;;8.50;;
1949;SDS011;975;48.760;9.152;2023-03-01T13:45:03;19.92;;;8.98;;
1949;SDS011;975;48.760;9.152;2023-03-01T13:47:31;19.58;;;8.40;;
1949;SDS011;975;48.760;9.152;2023-03-01T13:50:00;19.25;;;8.73;;
1949;SDS011;975;48.760;9.152;2023-03-01T13:52:39;19.08;;;9.65;;
1949;SDS011;975;48.760;9.152;2023-03-01T13:55:14;18.90;;;7.97;;
1949;SDS011;975;48.760;9.152;2023-03-01T13:57:44;19.70;;;9.15;;
1949;SDS011;975;48.760;9.152;2023-03-01T14:00:32;24.58;;;8.70;;
1949;SDS011;975;48.760;9.152;2023-03-01T14:03:02;20.52;;;9.45;;
1949;SDS011;975;48.760;9.152;2023-03-01T14:05:30;21.65;;;8.85;;
1949;SDS011;975;48.760;9.152;2023-03-01T14:07:59;19.17;;;9.55;;
1949;SDS011;975;48.760;9.152;2023-03-01T14:10:35;24.73;;;11.25;;
1949;SDS011;975;48.760;9.152;2023-03-01T14:13:19;22.50;;;10.30;;
1949;SDS011;975;48.760;9.152;2023-03-01T14:18:33;21.38;;;9.70;;
1949;SDS011;975;48.760;9.152;2023-03-01T14:21:07;24.35;;;10.50;;
1949;SDS011;975;48.760;9.152;2023-03-01T14:23:37;26.98;;;11.65;;
1949;SDS011;975;48.760;9.152;2023-03-01T14:26:13;22.83;;;11.02;;
1949;SDS011;975;48.760;9.152;2023-03-01T14:28:46;23.98;;;11.52;;
1949;SDS011;975;48.760;9.152;2023-03-01T14:34:16;26.58;;;11.98;;
1949;SDS011;975;48.760;9.152;2023-03-01T14:36:47;25.55;;;11.20;;
1949;SDS011;975;48.760;9.152;2023-03-01T14:39:23;26.20;;;10.65;;
1949;SDS011;975;48.760;9.152;2023-03-01T14:41:54;22.55;;;10.38;;
1949;SDS011;975;48.760;9.152;2023-03-01T14:44:26;25.23;;;10.93;;
1949;SDS011;975;48.760;9.152;2023-03-01T14:47:14;22.88;;;10.98;;
1949;SDS011;975;48.760;9.152;2023-03-01T14:49:44;22.35;;;10.57;;
1949;SDS011;975;48.760;9.152;2023-03-01T14:52:20;22.77;;;10.15;;
1949;SDS011;975;48.760;9.152;2023-03-01T14:54:50;24.42;;;11.50;;
1949;SDS011;975;48.760;9.152;2023-03-01T14:57:22;22.33;;;10.20;;
1949;SDS011;975;48.760;9.152;2023-03-01T14:59:51;22.27;;;10.73;;
1949;SDS011;975;48.760;9.152;2023-03-01T15:02:21;24.08;;;10.65;;
1949;SDS011;975;48.760;9.152;2023-03-01T15:04:58;21.63;;;10.02;;
1949;SDS011;975;48.760;9.152;2023-03-01T15:07:34;21.60;;;10.07;;
1949;SDS011;975;48.760;9.152;2023-03-01T15:10:14;20.20;;;10.10;;
1949;SDS011;975;48.760;9.152;2023-03-01T15:12:49;24.60;;;10.43;;
1949;SDS011;975;48.760;9.152;2023-03-01T15:15:19;23.25;;;11.57;;
1949;SDS011;975;48.760;9.152;2023-03-01T15:17:53;21.65;;;10.55;;
1949;SDS011;975;48.760;9.152;2023-03-01T15:20:22;22.33;;;10.43;;
1949;SDS011;975;48.760;9.152;2023-03-01T15:25:25;23.38;;;10.02;;
1949;SDS011;975;48.760;9.152;2023-03-01T15:27:55;22.85;;;10.35;;
1949;SDS011;975;48.760;9.152;2023-03-01T15:30:26;36.38;;;14.45;;
1949;SDS011;975;48.760;9.152;2023-03-01T15:33:27;24.08;;;10.48;;
1949;SDS011;975;48.760;9.152;2023-03-01T15:35:59;25.25;;;11.23;;
1949;SDS011;975;48.760;9.152;2023-03-01T15:38:31;22.27;;;10.82;;
1949;SDS011;975;48.760;9.152;2023-03-01T15:41:21;21.52;;;10.18;;
1949;SDS011;975;48.760;9.152;2023-03-01T15:43:50;26.52;;;10.82;;
1949;SDS011;975;48.760;9.152;2023-03-01T15:46:20;22.77;;;11.57;;
1949;SDS011;975;48.760;9.152;2023-03-01T15:48:52;23.13;;;10.30;;
1949;SDS011;975;48.760;9.152;2023-03-01T15:51:22;22.92;;;10.48;;
1949;SDS011;975;48.760;9.152;2023-03-01T15:54:00;24.50;;;10.82;;
1949;SDS011;975;48.760;9.152;2023-03-01T15:56:34;29.60;;;11.07;;